FNHU/NOV METAR and TAF weather

Enter ICAO airport designator
Station Type Date Time Source
FNHU METAR 2018/07/20 15:00 UTC NOAA

FNHU 201500Z 06004KT CAVOK 25/03 Q1021


Station Type Date Time Source
FNHU Decoded METAR 2018/07/20 15:00 UTC NOAA

Huambo Nova Lisboa , Angola (FNHU) 12-48S 015-45E 1701M
Jul 20, 2018 - 11:00 AM EDT / 2018.07.20 1500 UTC
Wind: from the ENE (060 degrees) at 5 MPH (4 KT):0
Visibility: greater than 7 mile(s):0
Temperature: 77 F (25 C)
Dew Point: 37 F (3 C)
Relative Humidity: 23%
Pressure (altimeter): 30.15 in. Hg (1021 hPa)
ob: FNHU 201500Z 06004KT CAVOK 25/03 Q1021
cycle: 15

Station Type Date Time Source
FNHU TAF 2018/07/20 12:39 UTC NOAA

TAF TAF FNHU 201100Z 2012/2024 VRB03KT CAVOK


Example: see airport list